Time;durP1;ratioP1;P1;durP2;ratioP2;P2;SDS_P1;SDS_P2;PMS_P1;PMS_P2;Temp;Humidity;BMP_temperature;BMP_pressure;BME280_temperature;BME280_humidity;BME280_pressure;Samples;Min_cycle;Max_cycle;Signal;HPM_P1;HPM_P2
2021/12/07 00:01:20;;;;;;;24.27;12.63;;;;;;;1.45;88.10;98724.82;1761535;81;21573;-63
2021/12/07 00:03:47;;;;;;;30.72;13.60;;;;;;;1.41;88.11;98725.82;1761893;80;21039;-64
2021/12/07 00:06:13;;;;;;;24.47;13.72;;;;;;;1.42;87.94;98718.56;1761569;81;20979;-64
2021/12/07 00:08:42;;;;;;;26.73;13.45;;;;;;;1.41;87.75;98727.16;1761223;80;21097;-63
2021/12/07 00:11:10;;;;;;;23.07;12.68;;;;;;;1.40;87.69;98720.16;1761254;81;20965;-65
2021/12/07 00:13:38;;;;;;;32.10;13.80;;;;;;;1.42;87.64;98720.72;1760685;80;21098;-64
2021/12/07 00:16:09;;;;;;;24.18;13.18;;;;;;;1.40;87.58;98721.50;1732536;81;20959;-64
2021/12/07 00:18:36;;;;;;;30.65;13.75;;;;;;;1.34;87.68;98733.70;1731456;81;21027;-64
2021/12/07 00:21:04;;;;;;;27.40;13.38;;;;;;;1.32;87.91;98737.95;1757468;81;21319;-62
2021/12/07 00:23:30;;;;;;;20.95;12.90;;;;;;;1.38;88.17;98730.29;1728633;82;21133;-64
2021/12/07 00:25:56;;;;;;;21.02;12.50;;;;;;;1.48;88.15;98736.41;1750707;81;21488;-64
2021/12/07 00:28:23;;;;;;;21.05;12.50;;;;;;;1.57;88.05;98724.77;1752303;80;21091;-64
2021/12/07 00:30:52;;;;;;;23.00;13.22;;;;;;;1.63;87.95;98728.64;1747274;82;20963;-64
2021/12/07 00:35:51;;;;;;;22.58;12.63;;;;;;;1.71;87.88;98746.23;1747614;82;21056;-64
2021/12/07 00:38:23;;;;;;;32.65;12.70;;;;;;;1.66;87.94;98742.13;1744495;81;21060;-63
2021/12/07 00:40:49;;;;;;;25.02;12.95;;;;;;;1.60;87.98;98736.35;1747701;82;21309;-64
2021/12/07 00:43:16;;;;;;;34.53;15.15;;;;;;;1.54;87.91;98727.92;1747429;81;21058;-65
2021/12/07 00:45:45;;;;;;;25.43;14.55;;;;;;;1.50;87.75;98741.81;1747376;82;21511;-64
2021/12/07 00:48:14;;;;;;;24.65;14.33;;;;;;;1.52;87.68;98746.95;1747157;81;21089;-63
2021/12/07 00:50:42;;;;;;;25.60;14.47;;;;;;;1.57;87.72;98747.56;1747578;82;21017;-65
2021/12/07 00:53:09;;;;;;;29.35;14.07;;;;;;;1.64;87.75;98746.91;1727302;82;21026;-65
2021/12/07 00:55:39;;;;;;;28.50;14.28;;;;;;;1.69;87.83;98745.67;1747742;82;21023;-63
2021/12/07 00:58:16;;;;;;;33.55;14.75;;;;;;;1.64;87.85;98742.87;1746930;81;21556;-64
2021/12/07 01:00:35;;;;;;;32.17;13.80;;;;;;;1.60;87.96;98747.91;1746379;82;20991;-65
2021/12/07 01:03:03;;;;;;;31.33;15.00;;;;;;;1.63;88.01;98755.47;1747296;81;21062;-65
2021/12/07 01:05:33;;;;;;;27.58;14.28;;;;;;;1.60;87.72;98741.72;1750207;81;21051;-65
2021/12/07 01:26:54;;;;;;;44.25;20.95;;;;;;;1.39;87.85;98741.83;1747075;82;21479;-64
2021/12/07 01:29:24;;;;;;;49.60;20.12;;;;;;;1.39;87.80;98744.00;1747370;81;21063;-65
2021/12/07 01:32:07;;;;;;;56.75;21.77;;;;;;;1.41;87.87;98751.30;1745667;82;21002;-64
2021/12/07 01:34:57;;;;;;;64.50;21.10;;;;;;;1.36;87.92;98751.17;1744646;82;21071;-64
2021/12/07 01:37:25;;;;;;;49.90;20.10;;;;;;;1.30;88.09;98746.77;1743708;82;21008;-64
2021/12/07 01:45:20;;;;;;;41.88;21.40;;;;;;;1.40;88.10;98753.68;1747647;82;21004;-64
2021/12/07 01:50:22;;;;;;;46.83;20.55;;;;;;;1.52;88.01;98750.98;1742078;81;21048;-64
2021/12/07 02:00:23;;;;;;;39.42;19.98;;;;;;;1.32;88.16;98727.74;1708193;81;21013;-64
2021/12/07 02:02:49;;;;;;;38.58;19.25;;;;;;;1.33;88.10;98727.52;1748311;81;21035;-63
2021/12/07 02:05:16;;;;;;;43.90;21.07;;;;;;;1.40;88.07;98742.95;1746911;82;20959;-63
2021/12/07 02:07:43;;;;;;;40.38;19.45;;;;;;;1.41;87.94;98735.20;1749574;80;21534;-65
2021/12/07 02:10:15;;;;;;;34.95;17.48;;;;;;;1.37;87.86;98738.59;1747300;82;21096;-65
2021/12/07 02:12:45;;;;;;;35.05;18.62;;;;;;;1.29;88.04;98747.81;1745150;81;21106;-65
2021/12/07 02:15:19;;;;;;;32.88;18.37;;;;;;;1.28;88.29;98762.26;1747677;81;21327;-64
2021/12/07 02:17:46;;;;;;;35.75;18.15;;;;;;;1.35;88.36;98763.47;1746093;81;21105;-65
2021/12/07 02:20:13;;;;;;;35.90;18.65;;;;;;;1.42;88.31;98759.61;1747864;81;21465;-65
2021/12/07 02:22:40;;;;;;;32.53;17.40;;;;;;;1.46;88.15;98759.43;1743652;82;21079;-64
2021/12/07 02:25:08;;;;;;;34.98;18.32;;;;;;;1.49;88.01;98758.13;1747196;82;21003;-64
2021/12/07 02:27:36;;;;;;;39.45;18.92;;;;;;;1.47;87.98;98761.07;1747355;81;21576;-64
2021/12/07 02:30:09;;;;;;;35.08;18.02;;;;;;;1.41;88.09;98758.00;1736184;82;21537;-64
2021/12/07 02:32:36;;;;;;;37.93;18.42;;;;;;;1.40;88.21;98756.36;1726745;82;21074;-64
2021/12/07 02:35:04;;;;;;;;;;;;;;;1.43;88.18;98747.84;1719541;82;21000;-64
2021/12/07 02:37:32;;;;;;;35.95;17.92;;;;;;;1.44;88.02;98756.70;1747550;81;20091;-64
2021/12/07 02:39:59;;;;;;;33.30;17.42;;;;;;;1.41;88.05;98771.93;1744936;82;21494;-64
2021/12/07 02:42:26;;;;;;;31.42;17.10;;;;;;;1.41;88.07;98765.23;1753035;80;21027;-65
2021/12/07 02:44:53;;;;;;;33.92;17.07;;;;;;;1.35;88.14;98760.78;1745844;82;20954;-65
2021/12/07 02:47:20;;;;;;;33.67;16.67;;;;;;;1.27;88.29;98760.65;1748985;80;20967;-64
2021/12/07 02:49:47;;;;;;;31.30;16.27;;;;;;;1.29;88.47;98758.53;1750834;82;21005;-63
2021/12/07 05:49:55;;;;;;;14.47;8.88;;;;;;;1.06;88.77;98814.86;1768706;79;21121;-72
2021/12/07 05:52:21;;;;;;;;;;;;;;;1.10;88.75;98825.38;1718022;82;21109;-72
2021/12/07 05:54:48;;;;;;;12.68;8.18;;;;;;;1.05;88.69;98827.95;1747507;82;20138;-72
2021/12/07 05:57:14;;;;;;;14.78;9.43;;;;;;;0.91;88.92;98826.03;1748396;82;21066;-74
2021/12/07 05:59:40;;;;;;;13.83;8.30;;;;;;;0.93;89.11;98831.14;1741927;81;21121;-74
2021/12/07 06:02:07;;;;;;;12.43;8.33;;;;;;;0.99;89.05;98826.22;1743110;81;21592;-74
2021/12/07 06:04:33;;;;;;;10.93;7.28;;;;;;;1.04;88.87;98827.66;1732614;81;21023;-75
2021/12/07 06:07:00;;;;;;;11.50;7.70;;;;;;;1.10;88.75;98833.42;1770047;80;20994;-75
2021/12/07 06:09:27;;;;;;;12.00;8.03;;;;;;;1.07;88.59;98831.73;1737560;81;21619;-65
2021/12/07 06:11:54;;;;;;;11.55;7.40;;;;;;;0.99;88.66;98829.69;1804569;79;21071;-65
2021/12/07 06:14:28;;;;;;;11.57;7.80;;;;;;;0.97;88.75;98822.41;1773479;80;21082;-64
2021/12/07 06:16:50;;;;;;;11.78;7.87;;;;;;;1.01;88.69;98817.41;1737576;81;21007;-65
2021/12/07 06:19:16;;;;;;;11.33;7.60;;;;;;;1.03;88.56;98821.20;1773199;80;21046;-64
2021/12/07 06:21:42;;;;;;;11.48;7.58;;;;;;;0.98;88.50;98816.53;1749004;82;21616;-65
2021/12/07 06:24:09;;;;;;;9.78;7.15;;;;;;;0.95;88.67;98822.36;1804320;78;21014;-64
2021/12/07 06:26:35;;;;;;;11.53;7.47;;;;;;;0.95;88.71;98826.38;1790134;78;21442;-64
2021/12/07 06:29:03;;;;;;;12.20;7.78;;;;;;;0.98;88.65;98820.03;1780073;80;21026;-64
2021/12/07 06:31:31;;;;;;;14.35;8.20;;;;;;;1.02;88.55;98819.56;1779257;80;20979;-63
2021/12/07 06:33:58;;;;;;;15.98;9.05;;;;;;;1.03;88.49;98822.55;1794752;79;21030;-63
2021/12/07 06:36:25;;;;;;;14.03;8.83;;;;;;;1.00;88.51;98822.47;1806659;78;20992;-63
2021/12/07 06:38:51;;;;;;;14.58;9.43;;;;;;;0.94;88.64;98812.68;1795646;78;21020;-61
2021/12/07 06:41:17;;;;;;;15.23;9.68;;;;;;;0.94;88.65;98818.86;1800552;79;21446;-62
2021/12/07 06:43:44;;;;;;;14.73;9.55;;;;;;;0.97;88.58;98821.59;1803837;79;21062;-62
2021/12/07 06:46:12;;;;;;;15.38;9.58;;;;;;;0.97;88.51;98832.31;1792456;78;21450;-62
2021/12/07 06:48:38;;;;;;;;;;;;;;;0.93;88.48;98841.34;1782385;79;21007;-62
2021/12/07 06:51:05;;;;;;;17.05;9.58;;;;;;;0.90;88.59;98841.80;1779305;80;20100;-62
2021/12/07 06:53:35;;;;;;;14.13;8.90;;;;;;;0.87;88.68;98842.27;1784334;80;21450;-62
2021/12/07 06:56:00;;;;;;;16.12;9.63;;;;;;;0.89;88.71;98850.88;1786060;80;21042;-62
2021/12/07 06:58:26;;;;;;;15.85;9.80;;;;;;;0.91;88.65;98866.22;1785664;80;21090;-63
2021/12/07 07:00:53;;;;;;;15.90;10.13;;;;;;;0.94;88.61;98866.28;1764365;81;21019;-62
2021/12/07 07:03:19;;;;;;;20.17;11.50;;;;;;;0.91;88.61;98879.63;1773293;80;21043;-61
2021/12/07 07:05:45;;;;;;;17.90;10.68;;;;;;;0.86;88.73;98878.14;1779918;80;21568;-73
2021/12/07 07:08:15;;;;;;;16.75;10.25;;;;;;;0.87;88.83;98881.13;1779152;80;21047;-72
2021/12/07 07:10:42;;;;;;;15.72;9.48;;;;;;;0.91;88.76;98890.86;1764481;80;20960;-72
2021/12/07 07:13:08;;;;;;;15.95;9.75;;;;;;;0.95;88.65;98898.73;1798119;78;21511;-73
2021/12/07 07:15:35;;;;;;;15.63;9.65;;;;;;;0.91;88.67;98905.08;1764706;81;21007;-72
2021/12/07 07:18:03;;;;;;;15.13;8.53;;;;;;;0.89;88.71;98913.86;1765242;80;21119;-71
2021/12/07 07:20:30;;;;;;;13.83;8.30;;;;;;;0.93;88.70;98912.88;1805447;78;21016;-70
2021/12/07 07:22:56;;;;;;;15.15;8.93;;;;;;;0.95;88.57;98904.92;1802552;78;21075;-71
2021/12/07 07:25:22;;;;;;;13.68;8.13;;;;;;;0.93;88.58;98903.49;1816073;78;20979;-72
2021/12/07 07:27:49;;;;;;;14.28;8.85;;;;;;;0.92;88.70;98887.14;1779667;80;21119;-72
2021/12/07 07:30:17;;;;;;;14.03;8.15;;;;;;;0.96;88.65;98884.27;1779627;80;21078;-72
2021/12/07 07:32:44;;;;;;;13.18;8.10;;;;;;;0.99;88.59;98881.16;1779558;80;21027;-72
2021/12/07 07:35:11;;;;;;;12.90;8.25;;;;;;;0.98;88.47;98878.99;1780000;80;20995;-72
2021/12/07 07:37:37;;;;;;;;;;;;;;;0.95;88.49;98888.02;1782472;80;21024;-72
2021/12/07 07:40:05;;;;;;;11.80;7.67;;;;;;;0.93;88.60;98896.80;1779830;80;20130;-72
2021/12/07 07:42:33;;;;;;;12.63;7.28;;;;;;;0.93;88.69;98892.25;1779666;80;21018;-73
2021/12/07 07:45:05;;;;;;;13.00;8.10;;;;;;;0.97;88.61;98893.95;1763272;80;21007;-72
2021/12/07 07:47:32;;;;;;;12.10;7.70;;;;;;;1.00;88.59;98902.34;1774327;80;20987;-71
2021/12/07 07:49:58;;;;;;;13.00;7.70;;;;;;;0.99;88.52;98889.98;1811944;78;21476;-73
2021/12/07 07:52:25;;;;;;;13.50;8.10;;;;;;;0.92;88.63;98911.27;1826256;78;21026;-69
2021/12/07 07:54:52;;;;;;;13.10;7.78;;;;;;;0.93;88.73;98919.57;1793724;80;21069;-69
2021/12/07 07:57:19;;;;;;;15.53;8.95;;;;;;;0.95;88.68;98902.76;1793563;80;21486;-69
2021/12/07 07:59:45;;;;;;;14.28;8.05;;;;;;;0.99;88.64;98901.25;1793648;80;21043;-70
2021/12/07 08:02:12;;;;;;;16.70;8.93;;;;;;;0.98;88.57;98908.48;1793506;80;21524;-69
2021/12/07 08:04:38;;;;;;;16.17;10.13;;;;;;;0.98;88.63;98906.31;1793355;80;21062;-69
2021/12/07 08:07:05;;;;;;;;;;;;;;;1.00;88.57;98916.27;1796058;80;21034;-69
2021/12/07 08:09:31;;;;;;;14.07;8.05;;;;;;;1.04;88.53;98923.33;1793330;80;20106;-69
2021/12/07 08:11:59;;;;;;;13.58;7.75;;;;;;;1.05;88.57;98914.25;1793308;80;21525;-69
2021/12/07 08:14:26;;;;;;;11.90;7.58;;;;;;;1.07;88.56;98906.78;1793359;80;21054;-69
2021/12/07 08:16:52;;;;;;;10.70;6.10;;;;;;;1.05;88.58;98903.52;1793440;80;21513;-68
2021/12/07 08:19:18;;;;;;;9.58;5.95;;;;;;;1.08;88.54;98899.04;1793424;80;21062;-68
2021/12/07 08:21:45;;;;;;;9.88;5.87;;;;;;;1.09;88.41;98905.52;1793581;80;21853;-68
2021/12/07 08:24:11;;;;;;;9.00;6.30;;;;;;;1.08;88.35;98905.22;1793520;80;21054;-68
2021/12/07 08:26:37;;;;;;;10.43;6.53;;;;;;;1.06;88.34;98919.39;1793775;80;21630;-68
2021/12/07 08:29:04;;;;;;;7.70;5.30;;;;;;;1.04;88.52;98912.61;1793446;80;21082;-70
2021/12/07 08:31:30;;;;;;;;;;;;;;;1.08;88.53;98919.96;1795980;80;21019;-69
2021/12/07 08:33:57;;;;;;;10.15;5.62;;;;;;;1.11;88.35;98914.14;1793309;80;20490;-70
2021/12/07 08:36:23;;;;;;;9.45;6.17;;;;;;;1.07;88.34;98917.50;1793392;80;21092;-69
2021/12/07 08:38:50;;;;;;;9.40;6.00;;;;;;;1.03;88.36;98914.46;1793449;80;21588;-69
2021/12/07 08:41:16;;;;;;;10.58;6.60;;;;;;;1.02;88.44;98914.19;1793804;80;21037;-70
2021/12/07 08:43:42;;;;;;;10.03;6.28;;;;;;;1.04;88.41;98900.02;1793597;80;21027;-69
2021/12/07 08:46:11;;;;;;;10.88;6.20;;;;;;;1.08;88.38;98889.66;1793865;80;21038;-69
2021/12/07 08:48:37;;;;;;;10.03;6.42;;;;;;;1.06;88.25;98895.27;1793290;80;21042;-69
2021/12/07 08:51:05;;;;;;;9.40;6.30;;;;;;;1.04;88.22;98909.41;1780211;80;21646;-69
2021/12/07 08:53:33;;;;;;;10.55;6.42;;;;;;;1.03;88.20;98911.78;1779478;80;21025;-69
2021/12/07 09:01:30;;;;;;;11.12;5.83;;;;;;;1.00;88.37;98902.34;1765272;80;21030;-64
2021/12/07 09:03:57;;;;;;;9.80;6.37;;;;;;;1.02;88.27;98908.83;1747790;82;21141;-60
2021/12/07 09:06:24;;;;;;;12.28;7.12;;;;;;;0.99;88.27;98909.30;1736093;82;21899;-60
2021/12/07 09:08:51;;;;;;;;;;;;;;;1.00;88.41;98911.73;1721012;83;21457;-61
2021/12/07 09:11:17;;;;;;;13.10;7.90;;;;;;;1.03;88.32;98907.77;1718992;82;20533;-60
2021/12/07 09:13:43;;;;;;;12.40;8.20;;;;;;;1.03;88.32;98897.05;1722257;82;21076;-61
2021/12/07 09:16:14;;;;;;;13.62;7.65;;;;;;;1.04;88.29;98883.94;1722748;83;21790;-61
2021/12/07 09:18:42;;;;;;;12.05;8.30;;;;;;;1.05;88.20;98886.10;1779534;80;21035;-62
2021/12/07 09:21:09;;;;;;;13.70;8.08;;;;;;;1.03;88.19;98887.66;1777113;80;21008;-61
2021/12/07 09:23:36;;;;;;;13.80;9.08;;;;;;;1.00;88.28;98885.45;1756328;80;21145;-61
2021/12/07 09:26:03;;;;;;;15.08;9.43;;;;;;;1.01;88.35;98880.39;1783654;80;21057;-61
2021/12/07 09:28:30;;;;;;;12.78;8.13;;;;;;;1.00;88.30;98882.25;1783641;80;21007;-61
2021/12/07 09:30:57;;;;;;;14.95;9.70;;;;;;;1.04;88.31;98882.60;1740075;82;21094;-61
2021/12/07 09:33:27;;;;;;;15.78;9.93;;;;;;;1.07;88.25;98879.97;1755142;82;21077;-60
2021/12/07 09:35:54;;;;;;;14.78;10.10;;;;;;;1.10;88.26;98879.53;1755266;82;20946;-61
2021/12/07 09:38:22;;;;;;;13.55;9.08;;;;;;;1.14;88.26;98873.98;1753106;81;21082;-61
2021/12/07 09:40:49;;;;;;;13.03;8.85;;;;;;;1.14;88.25;98878.00;1713497;84;21511;-61
2021/12/07 09:43:15;;;;;;;;;;;;;;;1.11;88.36;98879.81;1781816;80;21150;-60
2021/12/07 09:45:42;;;;;;;10.50;7.35;;;;;;;1.08;88.26;98881.62;1779671;80;20120;-62
2021/12/07 09:48:10;;;;;;;10.32;7.37;;;;;;;1.07;88.29;98885.34;1777329;80;21055;-62
2021/12/07 09:50:39;;;;;;;10.40;6.92;;;;;;;1.05;88.21;98879.41;1767587;80;21035;-62
2021/12/07 09:53:07;;;;;;;11.57;7.03;;;;;;;1.06;88.15;98875.16;1761485;80;21068;-62
2021/12/07 09:55:36;;;;;;;11.60;7.17;;;;;;;1.03;88.09;98875.59;1754608;81;21391;-62
2021/12/07 09:58:02;;;;;;;10.13;6.28;;;;;;;0.97;88.22;98874.67;1754453;81;21076;-61
2021/12/07 10:00:29;;;;;;;9.63;6.28;;;;;;;0.99;88.30;98877.13;1757051;82;20989;-63
2021/12/07 10:02:55;;;;;;;9.10;6.30;;;;;;;1.01;88.23;98876.37;1760635;81;21018;-62
2021/12/07 10:05:22;;;;;;;8.15;5.33;;;;;;;1.01;88.09;98875.03;1761655;81;21026;-62
2021/12/07 10:07:51;;;;;;;8.45;6.10;;;;;;;0.98;88.02;98870.95;1775062;80;21561;-61
2021/12/07 10:10:22;;;;;;;8.15;6.08;;;;;;;0.99;88.02;98873.11;1778567;80;21396;-61
2021/12/07 10:16:09;;;;;;;7.67;6.28;;;;;;;0.93;88.13;98865.45;1803538;79;28089;-62
2021/12/07 10:18:38;;;;;;;7.60;5.97;;;;;;;1.07;87.92;98868.73;1792311;80;21516;-63
2021/12/07 10:21:19;;;;;;;8.28;6.08;;;;;;;1.18;87.28;98869.80;1792132;80;20991;-63
2021/12/07 10:24:00;;;;;;;7.05;5.35;;;;;;;1.13;87.24;98863.81;1721635;83;21079;-61
2021/12/07 10:26:28;;;;;;;9.03;5.92;;;;;;;1.08;87.28;98863.67;1726281;83;21027;-61
2021/12/07 10:29:13;;;;;;;7.28;5.22;;;;;;;0.96;87.54;98854.79;1702257;84;21066;-61
2021/12/07 10:31:46;;;;;;;8.38;5.87;;;;;;;0.92;87.79;98865.70;1702344;83;21027;-61
2021/12/07 10:34:17;;;;;;;7.45;5.35;;;;;;;0.91;87.94;98856.84;1713006;83;21091;-63
2021/12/07 10:36:48;;;;;;;7.83;6.12;;;;;;;0.90;87.98;98848.50;1720843;83;21041;-62
2021/12/07 10:39:21;;;;;;;7.45;5.45;;;;;;;0.92;88.05;98856.33;1711027;83;22016;-62
2021/12/07 10:41:54;;;;;;;7.75;5.15;;;;;;;0.94;88.09;98863.59;1715248;81;21403;-61
2021/12/07 10:47:13;;;;;;;7.40;5.80;;;;;;;1.00;88.16;98858.64;1818765;79;22848;-62
2021/12/07 10:49:59;;;;;;;6.00;4.78;;;;;;;0.95;88.18;98858.54;1819647;78;21073;-62
2021/12/07 10:52:34;;;;;;;6.85;5.30;;;;;;;0.94;88.15;98848.86;1804651;78;20983;-62
2021/12/07 10:55:15;;;;;;;7.20;5.10;;;;;;;0.91;88.06;98856.84;1795400;80;21026;-63
2021/12/07 10:57:58;;;;;;;7.45;5.30;;;;;;;0.90;88.04;98854.38;1789653;79;21074;-63
2021/12/07 11:00:36;;;;;;;7.15;5.55;;;;;;;0.91;88.13;98846.65;1795577;80;21054;-62
2021/12/07 11:03:08;;;;;;;8.23;5.62;;;;;;;0.85;88.13;98852.94;1792505;80;21039;-63
2021/12/07 11:05:50;;;;;;;7.35;5.22;;;;;;;0.86;88.22;98851.87;1727337;83;21023;-62
2021/12/07 11:08:19;;;;;;;7.95;5.47;;;;;;;0.85;88.21;98850.26;1728425;83;21173;-63
2021/12/07 11:10:49;;;;;;;7.85;5.90;;;;;;;0.84;88.21;98850.78;1717756;83;21545;-62
2021/12/07 11:16:53;;;;;;;8.45;6.00;;;;;;;0.81;88.48;98838.36;1801127;79;22932;-62
2021/12/07 11:19:22;;;;;;;8.28;5.97;;;;;;;0.76;88.45;98835.55;1743255;81;21067;-62
2021/12/07 11:21:50;;;;;;;7.20;5.50;;;;;;;0.76;88.45;98840.39;1738978;82;21014;-61
2021/12/07 11:24:16;;;;;;;8.40;5.75;;;;;;;0.78;88.42;98838.83;1731299;82;21047;-63
2021/12/07 11:29:40;;;;;;;7.30;5.45;;;;;;;0.72;88.37;98843.23;1746659;82;21050;-63
2021/12/07 11:32:09;;;;;;;7.72;6.05;;;;;;;0.71;88.55;98842.14;1753093;82;21566;-63
2021/12/07 11:34:40;;;;;;;8.75;5.75;;;;;;;0.71;88.47;98852.85;1724250;82;21067;-63
2021/12/07 11:37:10;;;;;;;8.33;6.05;;;;;;;0.72;88.50;98847.24;1725812;82;20971;-63
2021/12/07 11:40:33;;;;;;;7.85;6.12;;;;;;;0.73;88.59;98834.67;1886247;76;23191;-61
2021/12/07 11:42:59;;;;;;;8.85;6.37;;;;;;;0.70;88.76;98847.19;1854775;77;21042;-62
2021/12/07 11:45:31;;;;;;;7.87;5.85;;;;;;;0.73;88.72;98841.38;1849951;77;21011;-62
2021/12/07 11:48:01;;;;;;;8.20;5.92;;;;;;;0.71;88.60;98843.47;1849764;77;21046;-63
2021/12/07 11:50:37;;;;;;;8.98;5.65;;;;;;;0.70;88.57;98843.17;1848601;77;20940;-60
2021/12/07 11:53:13;;;;;;;7.17;5.72;;;;;;;0.72;88.60;98847.77;1842065;77;21022;-61
2021/12/07 11:55:45;;;;;;;8.10;5.60;;;;;;;0.74;88.58;98859.91;1855337;77;21003;-62
2021/12/07 11:58:12;;;;;;;7.95;5.67;;;;;;;0.73;88.56;98857.44;1856934;77;21043;-61
2021/12/07 12:00:45;;;;;;;8.25;5.72;;;;;;;0.69;88.68;98856.27;1857401;77;21018;-62
2021/12/07 12:03:15;;;;;;;7.17;5.40;;;;;;;0.73;88.64;98848.89;1856590;77;21016;-61
2021/12/07 12:05:45;;;;;;;8.20;6.33;;;;;;;0.70;88.55;98845.33;1856726;77;20957;-61
2021/12/07 12:08:13;;;;;;;9.23;5.47;;;;;;;0.70;88.61;98848.53;1856558;77;21016;-61
2021/12/07 12:10:46;;;;;;;8.13;5.40;;;;;;;0.73;88.63;98848.89;1856609;77;20991;-63
2021/12/07 12:13:21;;;;;;;9.50;6.30;;;;;;;0.78;88.57;98849.55;1856249;77;21514;-63
2021/12/07 12:16:09;;;;;;;7.40;5.50;;;;;;;0.73;88.54;98854.25;1856531;77;20965;-62
2021/12/07 12:18:49;;;;;;;8.85;6.05;;;;;;;0.71;88.64;98858.20;1856152;77;21001;-62
2021/12/07 12:21:27;;;;;;;8.78;5.90;;;;;;;0.72;88.68;98858.48;1855999;77;21491;-63
2021/12/07 12:24:16;;;;;;;10.18;6.80;;;;;;;0.73;88.58;98855.59;1856480;77;21000;-63
2021/12/07 12:26:45;;;;;;;10.58;7.15;;;;;;;0.72;88.54;98859.82;1834090;77;20964;-63
2021/12/07 12:29:20;;;;;;;10.80;7.28;;;;;;;0.70;88.47;98862.75;1856507;77;21082;-63
2021/12/07 12:31:57;;;;;;;8.58;6.20;;;;;;;0.65;88.54;98868.48;1856723;77;21514;-63
2021/12/07 12:34:27;;;;;;;9.38;6.33;;;;;;;0.65;88.53;98877.33;1856425;77;21075;-62
2021/12/07 12:36:57;;;;;;;9.40;6.40;;;;;;;0.64;88.49;98885.62;1856561;77;21498;-62
2021/12/07 12:39:58;;;;;;;8.10;5.92;;;;;;;0.62;88.56;98896.55;1858100;77;21475;-62
2021/12/07 12:42:33;;;;;;;9.50;6.67;;;;;;;0.59;88.66;98903.70;1834651;77;21035;-63
2021/12/07 12:45:09;;;;;;;9.63;6.03;;;;;;;0.60;88.67;98897.83;1860569;77;21058;-63
2021/12/07 12:47:38;;;;;;;7.58;4.80;;;;;;;0.61;88.63;98890.88;1860464;77;20976;-64
2021/12/07 12:50:20;;;;;;;6.72;4.15;;;;;;;0.62;88.53;98890.37;1834577;77;21475;-63
2021/12/07 12:52:57;;;;;;;6.60;4.12;;;;;;;0.62;88.46;98871.62;1859924;77;21031;-63
2021/12/07 12:55:39;;;;;;;;;;;;;;;0.60;88.37;98878.56;1862463;77;21483;-63
2021/12/07 12:58:17;;;;;;;8.65;5.03;;;;;;;0.52;88.41;98877.53;1859930;77;20106;-63
2021/12/07 13:01:19;;;;;;;6.97;4.55;;;;;;;0.48;88.53;98888.41;1859640;77;21495;-63
2021/12/07 13:04:12;;;;;;;8.83;4.83;;;;;;;0.46;88.56;98893.18;1859971;77;21087;-63
2021/12/07 13:09:45;;;;;;;7.72;5.12;;;;;;;0.46;88.48;98885.15;1859480;77;21068;-64
2021/12/07 13:12:19;;;;;;;6.37;4.12;;;;;;;0.44;88.58;98885.36;1859586;77;20988;-63
2021/12/07 13:14:57;;;;;;;6.15;4.15;;;;;;;0.46;88.60;98875.23;1858962;77;21043;-63
2021/12/07 13:17:44;;;;;;;7.05;4.67;;;;;;;0.43;88.60;98868.99;1859449;77;21024;-63
2021/12/07 13:20:30;;;;;;;7.15;4.12;;;;;;;0.41;88.68;98867.08;1859542;77;21036;-63
2021/12/07 13:23:11;;;;;;;7.37;4.67;;;;;;;0.41;88.65;98869.76;1859703;77;21453;-62
2021/12/07 13:25:48;;;;;;;7.33;5.10;;;;;;;0.39;88.56;98866.47;1859573;77;21040;-63
2021/12/07 13:28:31;;;;;;;7.37;4.37;;;;;;;0.39;88.57;98864.34;1860044;77;21035;-62
2021/12/07 13:31:18;;;;;;;8.05;4.92;;;;;;;0.37;88.60;98861.88;1860076;77;20953;-63
2021/12/07 13:33:50;;;;;;;6.97;4.83;;;;;;;0.37;88.58;98849.83;1857109;77;21495;-63
2021/12/07 13:36:41;;;;;;;6.62;4.28;;;;;;;0.35;88.57;98857.80;1859890;77;20941;-62
2021/12/07 13:39:18;;;;;;;8.28;5.28;;;;;;;0.35;88.61;98863.98;1858581;77;21534;-63
2021/12/07 13:41:58;;;;;;;8.15;4.90;;;;;;;0.32;88.69;98872.44;1853827;77;20963;-63
2021/12/07 13:44:28;;;;;;;7.42;5.47;;;;;;;0.32;88.76;98872.44;1855774;77;21005;-63
2021/12/07 13:47:00;;;;;;;7.95;5.37;;;;;;;0.34;88.71;98881.08;1856089;77;21451;-62
2021/12/07 13:49:27;;;;;;;7.47;5.15;;;;;;;0.34;88.66;98882.41;1855850;77;21134;-63
2021/12/07 13:51:53;;;;;;;7.87;5.60;;;;;;;0.33;88.64;98879.44;1855673;77;21035;-63
2021/12/07 13:54:20;;;;;;;;;;;;;;;0.30;88.61;98883.09;1858341;77;21032;-63
2021/12/07 13:56:49;;;;;;;7.00;4.90;;;;;;;0.33;88.53;98898.69;1855916;77;20122;-62
2021/12/07 13:59:18;;;;;;;7.95;5.30;;;;;;;0.21;88.75;98896.50;1855616;77;21052;-62
2021/12/07 14:01:52;;;;;;;8.73;5.65;;;;;;;0.24;88.84;98918.80;1855863;77;20969;-63
2021/12/07 14:04:19;;;;;;;7.87;5.35;;;;;;;0.24;88.77;98906.75;1855709;77;21549;-62
2021/12/07 14:06:48;;;;;;;;;;;;;;;0.24;88.71;98908.91;1858371;77;21020;-62
2021/12/07 14:09:15;;;;;;;8.95;5.72;;;;;;;0.26;88.66;98908.15;1854928;77;20095;-63
2021/12/07 14:11:42;;;;;;;10.38;6.15;;;;;;;0.24;88.73;98906.75;1855568;77;20973;-63
2021/12/07 14:14:15;;;;;;;9.40;5.45;;;;;;;0.24;88.69;98899.55;1855593;77;21123;-63
2021/12/07 14:16:41;;;;;;;8.73;5.92;;;;;;;0.23;88.68;98903.25;1855806;77;20984;-63
2021/12/07 14:19:08;;;;;;;;;;;;;;;0.20;88.68;98904.22;1858443;77;21557;-63
2021/12/07 14:21:34;;;;;;;10.30;6.22;;;;;;;0.19;88.60;98891.36;1855771;77;20118;-62
2021/12/07 14:24:07;;;;;;;8.65;5.75;;;;;;;0.13;88.61;98902.97;1855695;77;21060;-63
2021/12/07 14:26:37;;;;;;;10.65;6.58;;;;;;;0.14;88.68;98903.28;1856035;77;20944;-63
2021/12/07 14:29:09;;;;;;;12.28;8.00;;;;;;;0.16;88.65;98904.37;1855885;77;21075;-63
2021/12/07 14:31:41;;;;;;;9.80;6.87;;;;;;;0.16;88.62;98903.86;1854764;77;20987;-63
2021/12/07 14:34:18;;;;;;;9.50;6.42;;;;;;;0.18;88.58;98922.38;1855906;77;21036;-62
2021/12/07 14:36:57;;;;;;;9.33;6.70;;;;;;;0.17;88.51;98930.11;1856188;77;21004;-62
2021/12/07 14:39:29;;;;;;;8.90;5.30;;;;;;;0.19;88.47;98942.73;1855585;77;21551;-62
2021/12/07 14:42:03;;;;;;;9.55;6.40;;;;;;;0.13;88.53;98940.44;1854705;77;21522;-62
2021/12/07 14:44:33;;;;;;;8.75;5.75;;;;;;;0.12;88.72;98937.45;1855578;77;21064;-63
2021/12/07 14:47:04;;;;;;;8.80;5.75;;;;;;;0.16;88.68;98933.30;1855858;77;21035;-63
2021/12/07 14:49:39;;;;;;;9.48;6.03;;;;;;;0.20;88.62;98929.13;1855867;77;21535;-63
2021/12/07 14:52:16;;;;;;;8.65;5.60;;;;;;;0.22;88.55;98926.22;1855737;77;21036;-63
2021/12/07 14:54:43;;;;;;;7.67;5.12;;;;;;;0.21;88.54;98918.73;1855806;77;21537;-64
2021/12/07 14:57:09;;;;;;;7.70;5.55;;;;;;;0.21;88.54;98917.91;1855920;77;21066;-63
2021/12/07 14:59:38;;;;;;;8.15;5.50;;;;;;;0.24;88.48;98921.47;1855728;77;21047;-64
2021/12/07 15:02:05;;;;;;;8.20;5.45;;;;;;;0.16;88.54;98919.09;1855663;77;21012;-64
2021/12/07 15:04:31;;;;;;;7.53;5.42;;;;;;;0.16;88.60;98923.11;1855546;77;21504;-64
2021/12/07 15:07:00;;;;;;;;;;;;;;;0.16;88.54;98921.25;1858318;77;21076;-64
2021/12/07 15:09:27;;;;;;;7.17;4.58;;;;;;;0.17;88.57;98916.20;1855972;77;20127;-62
2021/12/07 15:11:54;;;;;;;7.95;5.40;;;;;;;0.14;88.58;98909.15;1855582;77;20980;-63
2021/12/07 15:14:24;;;;;;;8.33;5.60;;;;;;;0.16;88.65;98916.42;1855896;77;21027;-63
2021/12/07 15:16:54;;;;;;;7.42;4.95;;;;;;;0.14;88.58;98912.64;1855634;77;20972;-63
2021/12/07 15:19:20;;;;;;;7.35;5.45;;;;;;;0.14;88.61;98924.69;1855971;77;21020;-63
2021/12/07 15:21:46;;;;;;;7.70;4.87;;;;;;;0.15;88.65;98926.81;1855834;77;20964;-63
2021/12/07 15:24:19;;;;;;;7.45;5.30;;;;;;;0.12;88.74;98920.58;1856049;77;21020;-62
2021/12/07 15:26:46;;;;;;;7.58;4.92;;;;;;;0.14;88.74;98922.53;1855727;77;21467;-63
2021/12/07 15:29:15;;;;;;;7.95;4.92;;;;;;;0.11;88.71;98930.47;1855425;77;21111;-63
2021/12/07 15:31:48;;;;;;;8.63;5.65;;;;;;;0.13;88.74;98939.63;1855747;77;20972;-63
2021/12/07 15:34:18;;;;;;;8.53;5.37;;;;;;;0.16;88.70;98931.96;1855080;76;21438;-63
2021/12/07 15:36:48;;;;;;;8.63;5.80;;;;;;;0.18;88.65;98933.09;1855891;77;20992;-63
2021/12/07 15:39:21;;;;;;;7.22;5.12;;;;;;;0.18;88.59;98935.77;1855294;77;21554;-62
2021/12/07 15:41:52;;;;;;;9.65;5.65;;;;;;;0.16;88.62;98933.81;1825086;77;21024;-63
2021/12/07 15:44:27;;;;;;;9.58;5.60;;;;;;;0.18;88.67;98930.41;1855870;77;21016;-63
2021/12/07 15:47:01;;;;;;;8.48;5.70;;;;;;;0.19;88.70;98933.36;1855298;77;20980;-63
2021/12/07 15:49:34;;;;;;;7.15;5.58;;;;;;;0.13;88.76;98937.77;1855724;77;21127;-63